Time;durP1;ratioP1;P1;durP2;ratioP2;P2;SDS_P1;SDS_P2;PMS_P1;PMS_P2;Temp;Humidity;BMP_temperature;BMP_pressure;BME280_temperature;BME280_humidity;BME280_pressure;Samples;Min_cycle;Max_cycle;Signal;HPM_P1;HPM_P2
2022/12/09 00:02:18;;;;;;;2.30;1.00;;;;;;;3.01;76.21;100090.19;5115706;28;20073;-73
2022/12/09 00:04:44;;;;;;;3.75;1.30;;;;;;;2.80;76.37;100062.31;5101199;28;20053;-74
2022/12/09 00:07:09;;;;;;;3.45;1.20;;;;;;;3.09;76.12;100092.03;5111636;28;20047;-73
2022/12/09 00:09:35;;;;;;;3.45;1.05;;;;;;;2.91;76.66;100068.28;5109183;28;20027;-73
2022/12/09 00:12:00;;;;;;;3.40;1.13;;;;;;;3.14;76.56;100100.31;5104565;28;20114;-73
2022/12/09 00:14:25;;;;;;;3.28;1.20;;;;;;;3.34;75.93;100104.25;5097661;28;20095;-73
2022/12/09 00:16:51;;;;;;;2.75;1.00;;;;;;;3.41;75.93;100099.09;5101925;28;20121;-73
2022/12/09 00:19:16;;;;;;;4.90;1.10;;;;;;;3.38;75.97;100107.41;5110919;28;20322;-73
2022/12/09 00:21:42;;;;;;;4.40;0.90;;;;;;;3.28;76.58;100087.16;5092092;28;20036;-73
2022/12/09 00:24:10;;;;;;;6.38;1.00;;;;;;;3.35;76.41;100089.16;5103607;28;20040;-73
2022/12/09 00:26:36;;;;;;;2.25;1.02;;;;;;;3.34;76.50;100108.75;5115806;28;20240;-73
2022/12/09 00:29:02;;;;;;;3.33;1.17;;;;;;;3.27;76.38;100109.41;5103018;28;20023;-72
2022/12/09 00:31:31;;;;;;;4.43;1.27;;;;;;;2.96;77.07;100103.97;5108920;28;20031;-73
2022/12/09 00:33:58;;;;;;;3.03;1.00;;;;;;;3.23;76.64;100105.44;5112367;28;20106;-73
2022/12/09 00:36:25;;;;;;;7.28;1.35;;;;;;;3.28;76.09;100108.44;5100580;28;20423;-73
2022/12/09 00:38:52;;;;;;;3.55;1.05;;;;;;;3.34;76.44;100103.44;5114068;28;20012;-73
2022/12/09 00:41:18;;;;;;;2.80;0.82;;;;;;;3.12;75.82;100089.84;5105248;28;20035;-73
2022/12/09 00:43:43;;;;;;;2.83;1.13;;;;;;;3.17;74.99;100100.81;5106805;28;20107;-72
2022/12/09 00:46:10;;;;;;;3.97;0.90;;;;;;;3.12;74.30;100105.81;5111885;28;20035;-72
2022/12/09 00:48:38;;;;;;;2.08;0.90;;;;;;;3.17;74.37;100111.44;5100863;28;20024;-73
2022/12/09 00:51:05;;;;;;;3.13;1.00;;;;;;;3.23;74.21;100107.28;5111481;28;20443;-72
2022/12/09 00:53:31;;;;;;;2.10;0.88;;;;;;;3.23;73.83;100110.75;5107629;28;20023;-72
2022/12/09 00:55:56;;;;;;;4.15;0.88;;;;;;;3.21;74.02;100107.47;5104327;28;20035;-72
2022/12/09 00:58:22;;;;;;;2.65;1.10;;;;;;;3.07;72.95;100094.84;5115365;28;20437;-72
2022/12/09 01:00:48;;;;;;;2.85;1.10;;;;;;;3.14;73.62;100105.63;5101677;28;20047;-72
2022/12/09 01:03:16;;;;;;;1.92;0.80;;;;;;;3.16;73.23;100103.63;5110674;28;20081;-72
2022/12/09 01:05:41;;;;;;;3.25;0.90;;;;;;;3.29;73.27;100110.09;5108054;28;20031;-72
2022/12/09 01:08:07;;;;;;;3.13;0.70;;;;;;;2.75;72.21;100040.75;5102585;28;20046;-72
2022/12/09 01:10:34;;;;;;;2.67;0.70;;;;;;;3.18;72.00;100099.81;5115080;28;20409;-72
2022/12/09 01:13:00;;;;;;;2.10;0.57;;;;;;;3.11;71.20;100097.97;5119150;28;20024;-72
2022/12/09 01:15:25;;;;;;;2.00;0.63;;;;;;;2.95;71.17;100110.31;5122242;28;20081;-74
2022/12/09 01:17:50;;;;;;;2.65;0.70;;;;;;;2.92;71.61;100126.59;5112786;28;20019;-73
2022/12/09 01:20:16;;;;;;;1.25;0.50;;;;;;;3.10;70.36;100115.75;5100058;28;20169;-73
2022/12/09 01:22:42;;;;;;;2.40;0.80;;;;;;;3.18;70.89;100114.91;5113868;28;20114;-73
2022/12/09 01:25:08;;;;;;;3.30;0.93;;;;;;;3.12;72.15;100129.72;5106125;28;20104;-72
2022/12/09 01:27:33;;;;;;;3.35;0.80;;;;;;;3.21;71.27;100120.75;5090960;28;20046;-73
2022/12/09 01:29:58;;;;;;;6.70;1.02;;;;;;;3.27;71.23;100111.25;5093030;28;20042;-72
2022/12/09 01:32:24;;;;;;;3.83;1.20;;;;;;;2.74;72.69;100109.97;5084714;28;20059;-73
2022/12/09 01:34:50;;;;;;;4.82;0.93;;;;;;;2.85;73.15;100112.31;5086575;28;20041;-73
2022/12/09 01:37:15;;;;;;;1.52;0.65;;;;;;;3.06;72.64;100123.25;5113130;28;20396;-72
2022/12/09 01:39:41;;;;;;;5.68;0.90;;;;;;;3.15;71.12;100115.28;5108862;28;20036;-72
2022/12/09 01:42:16;;;;;;;2.65;0.63;;;;;;;3.05;70.77;100108.31;5105930;28;20494;-72
2022/12/09 01:45:29;;;;;;;3.85;0.80;;;;;;;3.05;72.40;100124.25;5116509;28;20403;-72
2022/12/09 01:48:02;;;;;;;3.20;1.00;;;;;;;2.85;73.88;100130.06;5112332;28;20073;-73
2022/12/09 01:50:29;;;;;;;3.15;0.90;;;;;;;2.86;74.33;100118.44;5098316;28;20091;-73
2022/12/09 01:52:55;;;;;;;2.60;0.90;;;;;;;2.92;73.99;100104.50;5116098;28;20077;-72
2022/12/09 01:55:21;;;;;;;3.08;0.95;;;;;;;2.89;74.48;100134.88;5106273;28;20027;-72
2022/12/09 01:57:47;;;;;;;3.08;0.90;;;;;;;2.71;75.74;100132.38;5090752;28;20217;-73
2022/12/09 02:00:16;;;;;;;5.47;0.77;;;;;;;2.90;75.09;100130.41;5113834;28;20034;-72
2022/12/09 02:02:45;;;;;;;2.97;0.60;;;;;;;3.13;73.78;100133.22;5101950;28;20052;-72
2022/12/09 02:05:11;;;;;;;3.08;0.80;;;;;;;3.08;73.79;100128.41;5113816;28;20043;-72
2022/12/09 02:07:36;;;;;;;2.95;0.90;;;;;;;3.03;73.45;100128.06;5109016;28;20486;-72
2022/12/09 02:10:07;;;;;;;1.63;0.55;;;;;;;3.00;72.22;100141.69;5106554;28;20371;-72
2022/12/09 02:12:49;;;;;;;1.63;0.52;;;;;;;3.00;71.01;100120.44;5114433;28;20034;-73
2022/12/09 02:15:22;;;;;;;4.03;0.60;;;;;;;2.95;71.04;100106.81;5106037;28;20452;-72
2022/12/09 02:17:56;;;;;;;1.27;0.50;;;;;;;3.04;71.56;100132.38;5106759;28;20032;-72
2022/12/09 02:20:26;;;;;;;1.73;0.65;;;;;;;2.99;71.18;100142.69;5115544;28;20043;-72
2022/12/09 02:23:07;;;;;;;3.33;0.60;;;;;;;3.15;70.68;100134.72;5083820;28;20023;-73
2022/12/09 02:25:49;;;;;;;3.35;0.85;;;;;;;3.20;70.74;100142.19;5108853;28;20122;-72
2022/12/09 02:28:40;;;;;;;1.65;0.52;;;;;;;3.06;71.51;100144.50;5113737;28;20084;-72
2022/12/09 02:31:21;;;;;;;4.35;0.93;;;;;;;2.99;72.66;100150.66;5089414;28;20073;-72
2022/12/09 02:34:02;;;;;;;3.10;0.82;;;;;;;2.98;73.02;100144.53;5106413;28;20092;-72
2022/12/09 02:36:35;;;;;;;3.72;0.70;;;;;;;3.16;72.71;100141.69;5115818;28;20027;-72
2022/12/09 02:39:02;;;;;;;3.83;0.63;;;;;;;2.92;72.60;100141.69;5103649;28;20390;-72
2022/12/09 02:41:31;;;;;;;2.47;0.60;;;;;;;3.24;72.16;100146.16;5109948;28;20028;-72
2022/12/09 02:44:04;;;;;;;1.67;0.50;;;;;;;3.20;71.22;100140.34;5110105;28;20027;-72
2022/12/09 02:46:32;;;;;;;2.72;0.60;;;;;;;3.01;71.16;100133.56;5100682;28;20039;-72
2022/12/09 02:48:58;;;;;;;2.30;0.57;;;;;;;3.17;70.70;100143.34;5113955;28;20052;-72
2022/12/09 02:51:28;;;;;;;1.35;0.25;;;;;;;3.05;70.91;100142.84;5107186;28;20444;-72
2022/12/09 02:54:02;;;;;;;1.73;0.60;;;;;;;3.18;70.04;100137.03;5109601;28;20084;-71
2022/12/09 02:56:28;;;;;;;1.52;0.52;;;;;;;2.86;69.30;100097.19;5118375;28;20028;-72
2022/12/09 02:58:54;;;;;;;4.13;0.68;;;;;;;3.22;69.03;100146.34;5099589;28;20040;-72
2022/12/09 03:01:43;;;;;;;1.17;0.55;;;;;;;3.16;68.57;100128.38;5117320;28;20048;-72
2022/12/09 03:04:17;;;;;;;0.70;0.50;;;;;;;3.06;68.08;100143.69;5125397;28;20454;-72
2022/12/09 03:06:49;;;;;;;2.20;0.65;;;;;;;3.23;67.36;100149.81;5119381;28;20064;-72
2022/12/09 03:09:38;;;;;;;2.10;0.52;;;;;;;2.82;66.86;100076.25;5103664;28;20034;-73
2022/12/09 03:12:08;;;;;;;3.67;0.77;;;;;;;3.33;67.24;100155.78;5103045;28;20089;-72
2022/12/09 03:14:43;;;;;;;3.80;0.68;;;;;;;3.28;67.85;100160.78;5116838;28;20050;-72
2022/12/09 03:17:22;;;;;;;2.78;0.70;;;;;;;3.24;68.06;100160.28;5108660;28;20288;-73
2022/12/09 03:19:57;;;;;;;3.55;0.80;;;;;;;3.20;68.45;100156.28;5111679;28;20047;-72
2022/12/09 03:22:28;;;;;;;2.05;0.73;;;;;;;3.17;67.87;100130.03;5118026;28;20390;-72
2022/12/09 03:24:56;;;;;;;1.83;0.50;;;;;;;3.34;68.37;100160.09;5088659;28;20114;-72
2022/12/09 03:27:35;;;;;;;1.73;1.20;;;;;;;3.16;69.25;100152.31;5115065;28;20043;-72
2022/12/09 03:30:02;;;;;;;2.60;0.60;;;;;;;3.20;69.37;100168.75;5116144;28;20095;-73
2022/12/09 03:32:30;;;;;;;5.65;0.75;;;;;;;3.24;70.18;100152.28;5105622;28;20032;-72
2022/12/09 03:35:06;;;;;;;1.95;0.47;;;;;;;3.31;70.13;100163.09;5119553;28;20070;-72
2022/12/09 03:37:35;;;;;;;2.45;0.73;;;;;;;3.20;70.80;100163.44;5111759;28;20030;-72
2022/12/09 03:40:02;;;;;;;1.33;0.52;;;;;;;2.88;70.54;100127.91;5110305;28;20028;-73
2022/12/09 03:42:37;;;;;;;2.10;0.90;;;;;;;3.13;70.63;100150.00;5120329;28;20038;-72
2022/12/09 03:45:10;;;;;;;1.63;0.90;;;;;;;3.17;70.62;100148.66;5107359;28;20057;-72
2022/12/09 03:47:55;;;;;;;1.50;0.70;;;;;;;3.20;71.14;100153.63;5113231;28;20443;-72
2022/12/09 03:50:23;;;;;;;3.67;0.65;;;;;;;3.17;71.36;100153.97;5080909;28;20044;-72
2022/12/09 03:52:55;;;;;;;2.65;0.85;;;;;;;3.01;71.18;100161.94;5081146;28;20036;-71
2022/12/09 03:55:40;;;;;;;3.13;0.55;;;;;;;3.07;71.51;100166.59;5064643;28;20117;-72
2022/12/09 03:58:08;;;;;;;2.38;0.60;;;;;;;3.10;71.44;100163.63;5081424;28;20143;-72
2022/12/09 04:00:36;;;;;;;3.08;0.60;;;;;;;2.96;72.68;100162.44;5063870;28;20047;-72
2022/12/09 04:03:03;;;;;;;1.75;0.60;;;;;;;3.08;72.83;100172.75;5063767;28;20025;-72
2022/12/09 04:05:29;;;;;;;3.10;0.60;;;;;;;3.18;72.89;100176.91;5060003;28;20037;-73
2022/12/09 04:07:55;;;;;;;3.95;0.70;;;;;;;3.15;72.36;100152.50;5072098;28;20032;-72
2022/12/09 04:10:20;;;;;;;2.88;0.55;;;;;;;2.95;72.28;100154.66;5064455;28;20048;-72
2022/12/09 04:12:46;;;;;;;3.05;0.60;;;;;;;3.23;72.22;100179.88;5046625;28;20106;-72
2022/12/09 04:15:11;;;;;;;2.95;0.65;;;;;;;3.24;71.99;100181.53;5080620;28;20103;-73
2022/12/09 04:17:37;;;;;;;1.55;0.60;;;;;;;3.11;71.44;100162.59;5080416;28;20056;-72
2022/12/09 04:20:03;;;;;;;0.85;0.50;;;;;;;3.02;71.25;100166.28;5063430;28;20099;-73
2022/12/09 04:22:29;;;;;;;2.45;0.70;;;;;;;3.08;70.79;100168.28;5119081;28;20050;-72
2022/12/09 04:24:54;;;;;;;0.98;0.40;;;;;;;3.04;72.30;100185.53;5106457;28;20031;-73
2022/12/09 04:27:20;;;;;;;3.20;0.60;;;;;;;3.27;70.99;100181.22;5114823;28;20083;-71
2022/12/09 04:29:45;;;;;;;2.50;0.65;;;;;;;3.08;71.55;100181.56;5113486;28;20035;-72
2022/12/09 04:32:10;;;;;;;3.47;0.50;;;;;;;2.90;72.08;100178.22;5090327;28;20034;-72
2022/12/09 04:34:36;;;;;;;3.25;0.68;;;;;;;2.93;73.27;100183.22;5118038;28;20035;-73
2022/12/09 04:37:01;;;;;;;1.55;0.50;;;;;;;3.10;72.44;100192.03;5101108;28;20046;-72
2022/12/09 04:39:27;;;;;;;3.17;0.80;;;;;;;2.89;73.47;100187.19;5109379;28;20028;-72
2022/12/09 04:41:52;;;;;;;2.05;0.60;;;;;;;2.96;73.10;100186.38;5109181;28;20380;-72
2022/12/09 04:44:18;;;;;;;4.80;0.60;;;;;;;3.15;73.44;100187.06;5099290;28;20031;-72
2022/12/09 04:46:43;;;;;;;4.60;0.77;;;;;;;3.11;72.69;100191.03;5105360;28;20040;-72
2022/12/09 04:49:08;;;;;;;1.83;0.52;;;;;;;3.01;73.06;100184.06;5115520;28;20054;-73
2022/12/09 04:51:34;;;;;;;1.42;0.43;;;;;;;2.91;73.18;100190.50;5111593;28;20035;-72
2022/12/09 04:53:59;;;;;;;3.50;0.60;;;;;;;2.95;72.50;100187.38;5109075;28;20032;-72
2022/12/09 04:56:25;;;;;;;2.78;0.60;;;;;;;2.95;72.38;100186.56;5116787;28;20038;-71
2022/12/09 04:58:50;;;;;;;3.58;0.70;;;;;;;2.48;75.03;100163.19;5102791;28;20040;-72
2022/12/09 05:01:20;;;;;;;2.30;0.47;;;;;;;2.73;74.77;100193.31;5112981;28;20052;-71
2022/12/09 05:03:50;;;;;;;1.50;0.50;;;;;;;2.86;74.30;100198.16;5111261;28;20032;-72
2022/12/09 05:06:16;;;;;;;3.50;0.40;;;;;;;2.82;73.83;100166.59;5104485;28;20032;-72
2022/12/09 05:08:42;;;;;;;3.70;0.40;;;;;;;3.04;73.58;100204.97;5117413;28;20176;-71
2022/12/09 05:11:07;;;;;;;3.83;0.60;;;;;;;2.93;73.42;100172.59;5105398;28;20039;-72
2022/12/09 05:13:33;;;;;;;7.45;0.50;;;;;;;2.90;73.26;100192.34;5111984;28;20028;-69
2022/12/09 05:16:10;;;;;;;1.92;0.40;;;;;;;2.98;72.35;100207.44;5111408;28;20562;-71
2022/12/09 05:18:36;;;;;;;1.15;0.40;;;;;;;3.03;72.39;100207.81;5103868;28;20089;-70
2022/12/09 05:21:07;;;;;;;0.82;0.30;;;;;;;2.80;72.31;100184.53;5114498;28;20020;-71
2022/12/09 05:23:33;;;;;;;3.30;0.77;;;;;;;3.01;71.98;100194.69;5107272;28;20088;-72
2022/12/09 05:26:03;;;;;;;2.75;0.55;;;;;;;3.09;71.59;100216.94;5103792;28;20391;-71
2022/12/09 05:28:29;;;;;;;4.30;0.70;;;;;;;3.16;71.78;100210.81;5096778;28;20020;-73
2022/12/09 05:30:59;;;;;;;2.40;0.50;;;;;;;3.09;72.00;100212.47;5082633;28;20087;-71
2022/12/09 05:33:24;;;;;;;1.48;0.43;;;;;;;3.06;72.13;100218.09;5108466;28;20158;-72
2022/12/09 05:35:49;;;;;;;1.77;0.50;;;;;;;2.82;72.44;100200.31;5106713;28;20061;-72
2022/12/09 05:38:15;;;;;;;2.00;0.45;;;;;;;2.98;72.60;100215.44;5098931;28;20024;-71
2022/12/09 05:40:40;;;;;;;2.17;0.63;;;;;;;3.10;72.57;100214.13;5094638;28;20040;-71
2022/12/09 05:43:06;;;;;;;3.70;0.50;;;;;;;3.03;73.38;100221.09;5098557;28;20027;-70
2022/12/09 05:45:31;;;;;;;2.03;0.50;;;;;;;3.01;72.84;100204.47;5105463;28;20038;-72
2022/12/09 05:47:56;;;;;;;1.85;0.30;;;;;;;3.02;71.63;100198.19;5107621;28;20032;-72
2022/12/09 05:50:25;;;;;;;4.45;0.60;;;;;;;3.07;71.59;100217.09;5098434;28;20028;-72
2022/12/09 05:52:50;;;;;;;3.88;0.40;;;;;;;3.23;71.62;100222.44;5112963;28;20039;-72
2022/12/09 05:55:16;;;;;;;4.15;0.52;;;;;;;2.75;70.61;100127.59;5103686;28;20035;-71
2022/12/09 05:57:42;;;;;;;3.00;0.47;;;;;;;3.24;71.56;100221.44;5106620;28;20036;-70
2022/12/09 06:00:08;;;;;;;2.83;0.43;;;;;;;3.22;71.70;100219.94;5109917;28;20482;-68
2022/12/09 06:02:33;;;;;;;3.08;0.50;;;;;;;3.18;71.64;100219.47;5100745;28;20056;-68
2022/12/09 06:04:58;;;;;;;1.85;0.30;;;;;;;3.22;71.23;100230.59;5112767;28;20065;-69
2022/12/09 06:07:24;;;;;;;6.53;0.50;;;;;;;3.08;71.38;100217.94;5086809;28;20023;-69
2022/12/09 06:09:49;;;;;;;2.90;0.40;;;;;;;3.16;70.82;100225.94;5102284;28;20054;-72
2022/12/09 06:12:15;;;;;;;0.90;0.38;;;;;;;3.09;70.82;100203.66;5094097;28;20452;-72
2022/12/09 06:14:40;;;;;;;2.35;0.40;;;;;;;3.27;70.40;100231.72;5110670;28;20154;-69
2022/12/09 06:17:06;;;;;;;3.22;0.43;;;;;;;3.28;70.71;100227.28;5098604;28;20102;-70
2022/12/09 06:19:31;;;;;;;2.85;0.70;;;;;;;3.25;70.33;100231.09;5107775;28;20402;-71
2022/12/09 06:21:57;;;;;;;1.40;0.70;;;;;;;3.23;70.41;100227.75;5106414;28;20487;-72
2022/12/09 06:24:22;;;;;;;2.10;0.90;;;;;;;3.05;70.96;100219.13;5083174;28;20410;-68
2022/12/09 06:26:48;;;;;;;2.20;0.60;;;;;;;3.02;72.20;100230.06;5095790;28;20032;-71
2022/12/09 06:29:13;;;;;;;1.42;0.50;;;;;;;2.94;72.16;100206.13;5108004;28;20422;-71
2022/12/09 06:31:39;;;;;;;3.05;0.63;;;;;;;3.21;72.55;100231.56;5095833;28;20457;-72
2022/12/09 06:34:04;;;;;;;3.85;0.60;;;;;;;3.14;72.28;100231.38;5095331;28;20028;-69
2022/12/09 06:36:30;;;;;;;2.33;0.50;;;;;;;3.18;72.11;100240.72;5112475;28;20491;-69
2022/12/09 06:38:57;;;;;;;1.85;0.55;;;;;;;2.94;73.51;100238.84;5100132;28;20019;-68
2022/12/09 06:41:23;;;;;;;2.15;0.32;;;;;;;2.72;73.34;100237.66;5094470;28;20032;-71
2022/12/09 06:43:48;;;;;;;0.68;0.40;;;;;;;2.86;73.21;100222.06;5096969;28;20024;-70
2022/12/09 06:46:19;;;;;;;1.20;0.30;;;;;;;2.81;73.18;100249.97;5110801;28;20044;-70
2022/12/09 06:48:45;;;;;;;3.47;0.40;;;;;;;2.81;73.65;100249.97;5100220;28;20024;-70
2022/12/09 06:51:13;;;;;;;1.38;0.40;;;;;;;2.88;73.24;100258.13;5113730;28;20530;-70
2022/12/09 06:53:38;;;;;;;2.17;0.50;;;;;;;2.59;73.53;100229.31;5110237;28;20058;-71
2022/12/09 06:56:05;;;;;;;2.40;0.50;;;;;;;2.57;74.92;100228.63;5114154;28;20039;-71
2022/12/09 06:58:32;;;;;;;1.48;0.38;;;;;;;2.65;75.40;100263.19;5121582;28;20522;-71
2022/12/09 07:01:04;;;;;;;2.55;0.20;;;;;;;2.71;74.89;100262.53;5087211;28;20043;-72
2022/12/09 07:03:30;;;;;;;1.83;0.47;;;;;;;3.03;73.11;100266.28;5112737;28;20036;-70
2022/12/09 07:05:55;;;;;;;1.25;0.30;;;;;;;3.04;73.22;100266.09;5110836;28;20045;-71
2022/12/09 07:08:20;;;;;;;2.33;0.25;;;;;;;2.88;72.99;100270.56;5103920;28;20040;-70
2022/12/09 07:10:46;;;;;;;3.17;0.30;;;;;;;2.85;71.87;100273.53;5118226;28;20084;-70
2022/12/09 07:13:11;;;;;;;0.80;0.22;;;;;;;2.83;72.41;100269.22;5106009;28;20032;-71
2022/12/09 07:15:37;;;;;;;2.28;0.30;;;;;;;2.75;72.15;100263.91;5111345;28;20043;-71
2022/12/09 07:18:02;;;;;;;1.23;0.47;;;;;;;2.96;71.51;100268.75;5095837;28;20020;-72
2022/12/09 07:20:28;;;;;;;1.13;0.40;;;;;;;2.86;72.89;100276.03;5121083;27;20062;-71
2022/12/09 07:22:54;;;;;;;1.75;0.50;;;;;;;2.87;73.86;100274.22;5109543;28;20036;-71
2022/12/09 07:25:20;;;;;;;2.88;0.40;;;;;;;2.87;73.97;100276.88;5089519;28;20028;-71
2022/12/09 07:27:45;;;;;;;2.75;0.47;;;;;;;2.91;74.03;100264.91;5101209;28;20441;-71
2022/12/09 07:30:11;;;;;;;3.25;0.38;;;;;;;3.02;73.42;100280.56;5100961;28;20115;-71
2022/12/09 07:32:36;;;;;;;2.67;0.40;;;;;;;2.75;75.22;100279.84;5117417;28;20061;-71
2022/12/09 07:35:02;;;;;;;2.50;0.20;;;;;;;2.69;76.33;100277.00;5104110;28;20034;-70
2022/12/09 07:37:27;;;;;;;1.60;0.40;;;;;;;2.67;76.04;100279.78;5106066;28;20024;-71
2022/12/09 07:39:53;;;;;;;2.92;0.47;;;;;;;2.77;76.05;100290.28;5110040;28;20063;-71
2022/12/09 07:42:18;;;;;;;2.45;0.38;;;;;;;2.64;76.18;100289.91;5108022;28;20032;-71
2022/12/09 07:44:46;;;;;;;0.40;0.20;;;;;;;2.37;75.97;100261.75;5100750;28;20131;-71
2022/12/09 07:47:11;;;;;;;1.88;0.40;;;;;;;2.68;75.26;100294.75;5097805;28;20036;-71
2022/12/09 07:49:37;;;;;;;2.63;0.47;;;;;;;2.78;75.27;100295.47;5109042;28;20035;-70
2022/12/09 07:52:03;;;;;;;1.83;0.30;;;;;;;2.83;74.76;100297.63;5112639;28;20354;-70
2022/12/09 07:54:28;;;;;;;2.05;0.30;;;;;;;2.88;74.38;100291.81;5119366;28;20093;-71
2022/12/09 07:56:54;;;;;;;1.67;0.43;;;;;;;2.95;74.06;100306.97;5104005;28;20035;-70
2022/12/09 07:59:19;;;;;;;0.95;0.30;;;;;;;2.89;74.32;100296.97;5113531;28;20020;-71
2022/12/09 08:01:45;;;;;;;3.30;0.50;;;;;;;2.99;73.67;100312.78;5109879;28;20070;-72
2022/12/09 08:04:12;;;;;;;0.98;0.20;;;;;;;3.11;73.23;100303.50;5105749;28;20063;-71
2022/12/09 08:06:38;;;;;;;0.40;0.20;;;;;;;3.11;73.11;100311.47;5117602;28;20450;-71
2022/12/09 08:09:06;;;;;;;1.33;0.20;;;;;;;2.98;73.40;100287.19;5105197;28;20023;-72
2022/12/09 08:11:32;;;;;;;3.10;0.40;;;;;;;3.13;72.83;100321.94;5110807;28;20387;-71
2022/12/09 08:14:00;;;;;;;1.42;0.20;;;;;;;3.09;73.28;100310.81;5112738;28;20028;-70
2022/12/09 08:16:26;;;;;;;1.63;0.30;;;;;;;3.12;73.24;100321.13;5105236;28;20039;-70
2022/12/09 08:18:53;;;;;;;0.85;0.20;;;;;;;3.07;72.76;100328.75;5117081;28;20038;-72
2022/12/09 08:21:27;;;;;;;2.90;0.30;;;;;;;3.02;73.18;100331.06;5105042;28;20059;-70
2022/12/09 08:23:55;;;;;;;2.08;0.30;;;;;;;2.96;73.74;100316.59;5109736;28;20028;-71
2022/12/09 08:26:23;;;;;;;1.05;0.40;;;;;;;3.02;73.39;100325.75;5114214;28;20035;-71
2022/12/09 08:28:49;;;;;;;2.38;0.40;;;;;;;3.07;73.60;100318.09;5103158;28;20024;-69
2022/12/09 08:31:18;;;;;;;5.43;0.30;;;;;;;3.15;74.11;100342.06;5112355;28;20040;-72
2022/12/09 08:33:44;;;;;;;1.17;0.43;;;;;;;3.09;74.10;100340.06;5107084;28;20023;-70
2022/12/09 08:36:15;;;;;;;1.40;0.30;;;;;;;3.04;74.09;100339.69;5106802;28;20042;-69
2022/12/09 08:38:41;;;;;;;2.70;0.30;;;;;;;3.15;73.62;100349.22;5114532;28;20020;-71
2022/12/09 08:41:19;;;;;;;1.40;0.30;;;;;;;3.16;73.54;100351.69;5102352;28;20027;-69
2022/12/09 08:43:45;;;;;;;0.63;0.20;;;;;;;3.18;73.08;100347.06;5108061;28;20028;-70
2022/12/09 08:46:10;;;;;;;4.90;0.50;;;;;;;3.13;72.52;100341.38;5094637;28;20368;-69
2022/12/09 08:48:38;;;;;;;2.30;0.30;;;;;;;3.28;72.20;100355.72;5102457;28;20111;-70
2022/12/09 08:51:04;;;;;;;1.13;0.17;;;;;;;3.36;72.40;100360.22;5116417;28;20019;-71
2022/12/09 08:53:29;;;;;;;2.60;0.40;;;;;;;3.25;72.78;100361.38;5107672;28;20452;-71
2022/12/09 08:55:54;;;;;;;0.88;0.28;;;;;;;3.32;71.82;100355.41;5089750;28;20100;-69
2022/12/09 08:58:20;;;;;;;0.85;0.30;;;;;;;3.32;71.95;100358.88;5113085;28;20059;-71
2022/12/09 09:00:45;;;;;;;2.10;0.28;;;;;;;3.43;71.87;100363.88;5103152;28;20123;-70
2022/12/09 09:03:11;;;;;;;6.20;5.57;;;;;;;3.39;71.80;100359.91;5111885;28;20044;-69
2022/12/09 09:05:37;;;;;;;2.50;1.45;;;;;;;3.38;72.38;100357.38;5106501;28;20078;-70
2022/12/09 09:08:03;;;;;;;1.60;0.40;;;;;;;3.54;71.75;100368.06;5106699;28;20069;-70
2022/12/09 09:10:29;;;;;;;0.50;0.20;;;;;;;3.60;72.41;100372.72;5113478;28;20027;-70
2022/12/09 09:12:55;;;;;;;1.20;0.30;;;;;;;3.38;72.25;100366.22;5102959;28;20060;-70
2022/12/09 09:15:21;;;;;;;2.28;0.32;;;;;;;2.92;74.40;100325.06;5094567;28;20107;-70
2022/12/09 09:17:47;;;;;;;0.68;0.30;;;;;;;3.08;74.97;100367.66;5109052;28;20027;-74
2022/12/09 09:20:13;;;;;;;2.00;0.45;;;;;;;3.06;75.46;100365.13;5104905;28;20043;-72
2022/12/09 09:22:38;;;;;;;2.10;0.30;;;;;;;3.10;75.44;100359.50;5114556;28;20061;-72
2022/12/09 09:25:04;;;;;;;1.90;0.43;;;;;;;2.02;78.21;100243.19;5102443;28;20024;-72
2022/12/09 09:27:29;;;;;;;2.65;0.50;;;;;;;2.75;79.01;100372.81;5111038;28;20070;-69
2022/12/09 09:29:54;;;;;;;0.85;0.30;;;;;;;2.61;79.95;100372.56;5109783;28;20096;-71
2022/12/09 09:32:20;;;;;;;1.35;0.50;;;;;;;2.57;79.88;100359.59;5085528;28;20032;-73
2022/12/09 09:34:48;;;;;;;2.78;0.60;;;;;;;2.51;80.28;100362.06;5097700;28;20069;-74
2022/12/09 09:37:14;;;;;;;1.25;0.60;;;;;;;2.73;79.60;100379.28;5102544;28;20114;-72
2022/12/09 09:39:40;;;;;;;5.70;0.60;;;;;;;2.54;80.44;100381.16;5108382;28;20117;-70
2022/12/09 09:42:16;;;;;;;1.60;0.70;;;;;;;2.45;80.75;100375.97;5111043;28;20028;-71
2022/12/09 09:44:47;;;;;;;1.83;0.93;;;;;;;2.58;80.36;100379.03;5101653;28;20039;-71
2022/12/09 09:47:40;;;;;;;1.33;0.60;;;;;;;2.54;80.91;100391.78;5113226;28;20032;-71
2022/12/09 09:50:24;;;;;;;1.70;0.60;;;;;;;2.25;81.82;100362.91;5112430;28;20028;-71
2022/12/09 09:52:52;;;;;;;1.98;0.60;;;;;;;2.31;80.96;100391.47;5100632;28;20032;-70
2022/12/09 09:55:23;;;;;;;2.05;0.50;;;;;;;2.16;83.62;100394.88;5113317;28;20085;-73
2022/12/09 09:57:58;;;;;;;2.35;0.73;;;;;;;2.20;82.93;100393.56;5108786;28;20031;-71
2022/12/09 10:00:28;;;;;;;1.70;0.50;;;;;;;2.47;81.63;100397.88;5105102;28;20024;-71
2022/12/09 10:03:31;;;;;;;3.08;0.70;;;;;;;2.34;83.38;100395.66;5118301;28;20453;-72
2022/12/09 10:06:31;;;;;;;2.05;0.73;;;;;;;2.27;83.22;100397.25;5113749;28;20031;-73
2022/12/09 10:09:02;;;;;;;1.33;0.60;;;;;;;2.26;83.58;100398.25;5102423;28;20055;-71
2022/12/09 10:11:36;;;;;;;3.45;0.90;;;;;;;2.13;83.36;100388.03;5111913;28;20031;-72
2022/12/09 10:14:08;;;;;;;1.75;0.60;;;;;;;2.04;84.46;100404.88;5112976;28;20047;-71
2022/12/09 10:16:52;;;;;;;1.23;0.60;;;;;;;1.88;84.49;100411.72;5106781;28;20036;-71
2022/12/09 10:19:30;;;;;;;1.00;0.50;;;;;;;1.85;83.84;100395.25;5090188;28;20111;-72
2022/12/09 10:21:58;;;;;;;1.50;0.60;;;;;;;1.88;83.31;100411.72;5108067;28;20028;-71
2022/12/09 10:24:31;;;;;;;1.90;0.70;;;;;;;1.90;83.08;100416.06;5097236;28;20173;-70
2022/12/09 10:27:17;;;;;;;2.38;0.50;;;;;;;2.09;81.13;100415.88;5101436;28;20055;-70
2022/12/09 10:30:00;;;;;;;1.35;0.50;;;;;;;2.17;81.83;100415.94;5108376;28;20162;-67
2022/12/09 10:32:34;;;;;;;0.65;0.40;;;;;;;2.22;80.59;100410.16;5112287;28;20055;-70
2022/12/09 10:35:10;;;;;;;1.58;0.80;;;;;;;2.30;79.53;100387.16;5099693;28;20084;-69
2022/12/09 10:37:36;;;;;;;3.22;0.70;;;;;;;2.33;80.57;100407.25;5110267;28;20035;-72
2022/12/09 10:40:18;;;;;;;1.10;0.70;;;;;;;2.50;80.02;100419.66;5108530;28;20028;-68
2022/12/09 10:45:42;;;;;;;9.23;4.38;;;;;;;2.34;79.28;100387.69;5110181;28;20114;-69
2022/12/09 10:48:19;;;;;;;7.32;4.30;;;;;;;2.59;79.13;100428.53;5110862;28;20063;-70
2022/12/09 10:50:45;;;;;;;1.23;0.90;;;;;;;2.39;79.55;100419.09;5101646;28;20449;-69
2022/12/09 10:53:13;;;;;;;1.00;0.68;;;;;;;2.54;79.36;100433.44;5111589;28;20028;-68
2022/12/09 10:55:43;;;;;;;2.88;1.27;;;;;;;2.52;79.58;100436.28;5106870;28;20032;-67
2022/12/09 10:58:29;;;;;;;8.23;4.32;;;;;;;2.41;79.73;100438.34;5106157;28;20028;-72
2022/12/09 11:01:11;;;;;;;1.95;0.88;;;;;;;2.45;79.77;100437.03;5114902;28;20057;-72
2022/12/09 11:03:38;;;;;;;1.55;0.90;;;;;;;2.52;79.88;100436.28;5097133;28;20083;-70
2022/12/09 11:06:33;;;;;;;1.92;0.80;;;;;;;2.40;79.12;100418.09;5109301;28;20062;-71
2022/12/09 11:09:01;;;;;;;1.25;0.55;;;;;;;2.34;79.23;100438.97;5100675;28;20035;-69
2022/12/09 11:11:47;;;;;;;1.67;0.60;;;;;;;2.53;78.97;100439.75;5111279;28;20032;-68
2022/12/09 11:14:36;;;;;;;2.10;0.90;;;;;;;2.60;78.69;100430.19;5111098;28;20102;-70
2022/12/09 11:17:19;;;;;;;2.75;0.60;;;;;;;2.43;78.16;100441.69;5101546;28;20416;-72
2022/12/09 11:19:49;;;;;;;1.00;0.60;;;;;;;2.52;78.42;100440.75;5108921;28;20024;-70
2022/12/09 11:22:37;;;;;;;1.10;0.65;;;;;;;2.56;77.80;100434.97;5112742;28;20027;-71
2022/12/09 11:25:29;;;;;;;1.45;0.63;;;;;;;2.53;78.41;100443.25;5100689;28;20381;-71
2022/12/09 11:28:22;;;;;;;1.50;0.60;;;;;;;2.55;78.12;100445.72;5108104;28;20108;-71
2022/12/09 11:31:20;;;;;;;3.75;0.55;;;;;;;2.32;77.68;100418.88;5110099;28;20117;-69
2022/12/09 11:33:59;;;;;;;0.98;0.60;;;;;;;2.43;78.57;100436.38;5101291;28;20031;-70
2022/12/09 11:36:27;;;;;;;3.92;0.60;;;;;;;2.50;78.22;100448.03;5104814;28;20024;-70
2022/12/09 11:39:14;;;;;;;1.52;0.57;;;;;;;2.46;77.95;100442.22;5100840;28;20031;-70
2022/12/09 11:42:27;;;;;;;1.17;0.52;;;;;;;2.17;79.20;100439.81;5110128;28;20024;-70
2022/12/09 11:44:35;;;;;;;0.88;0.52;;;;;;;2.09;79.22;100442.44;5098475;28;20056;-70
2022/12/09 11:47:09;;;;;;;1.08;0.70;;;;;;;1.93;80.23;100450.25;5116576;28;20032;-71
2022/12/09 11:49:57;;;;;;;1.20;0.60;;;;;;;1.96;80.70;100432.19;5108420;28;20065;-71